Time;durP1;ratioP1;P1;durP2;ratioP2;P2;SDS_P1;SDS_P2;PMS_P1;PMS_P2;Temp;Humidity;BMP_temperature;BMP_pressure;BME280_temperature;BME280_humidity;BME280_pressure;Samples;Min_cycle;Max_cycle;Signal;HPM_P1;HPM_P2
2021/12/30 00:00:35;;;;;;;24.53;23.13;;;;;;;;;;5035431;28;20235;-76
2021/12/30 00:03:02;;;;;;;24.13;22.73;;;;;;;;;;5035646;28;20227;-76
2021/12/30 00:05:28;;;;;;;25.90;24.40;;;;;;;;;;5035324;28;20222;-76
2021/12/30 00:07:55;;;;;;;25.13;23.63;;;;;;;;;;5035552;28;20258;-75
2021/12/30 00:10:23;;;;;;;24.40;23.00;;;;;;;;;;5035099;28;20228;-75
2021/12/30 00:12:51;;;;;;;24.77;23.27;;;;;;;;;;5035491;28;20621;-75
2021/12/30 00:15:18;;;;;;;24.73;23.27;;;;;;;;;;5035522;28;20286;-75
2021/12/30 00:17:45;;;;;;;24.13;22.73;;;;;;;;;;5035473;28;20195;-75
2021/12/30 00:20:12;;;;;;;24.67;23.27;;;;;;;;;;5035396;28;20196;-75
2021/12/30 00:22:41;;;;;;;22.13;20.83;;;;;;;;;;5034968;28;20196;-74
2021/12/30 00:25:08;;;;;;;24.23;22.83;;;;;;;;;;5035272;28;20647;-75
2021/12/30 00:27:36;;;;;;;22.57;21.27;;;;;;;;;;5035151;28;20195;-75
2021/12/30 00:30:05;;;;;;;22.43;21.13;;;;;;;;;;5034753;28;20755;-75
2021/12/30 00:32:32;;;;;;;21.27;20.07;;;;;;;;;;5035151;28;20196;-75
2021/12/30 00:34:58;;;;;;;20.53;19.33;;;;;;;;;;5035063;28;20615;-75
2021/12/30 00:37:25;;;;;;;20.60;19.40;;;;;;;;;;5035030;28;20282;-75
2021/12/30 00:39:52;;;;;;;20.90;19.70;;;;;;;;;;5034944;28;20291;-75
2021/12/30 00:42:18;;;;;;;22.53;21.23;;;;;;;;;;5034916;28;20227;-75
2021/12/30 00:44:47;;;;;;;23.37;22.00;;;;;;;;;;5034595;28;20196;-74
2021/12/30 00:47:13;;;;;;;21.90;20.60;;;;;;;;;;5034826;28;20246;-75
2021/12/30 00:49:40;;;;;;;23.60;22.20;;;;;;;;;;5034481;28;20195;-75
2021/12/30 00:52:07;;;;;;;23.97;22.57;;;;;;;;;;5034297;28;20263;-75
2021/12/30 00:54:34;;;;;;;25.07;23.57;;;;;;;;;;5033739;28;20207;-75
2021/12/30 00:57:00;;;;;;;26.37;24.87;;;;;;;;;;5034313;28;20571;-75
2021/12/30 00:59:27;;;;;;;25.77;24.27;;;;;;;;;;5034568;28;20295;-75
2021/12/30 01:01:55;;;;;;;26.13;24.60;;;;;;;;;;5034612;28;20207;-74
2021/12/30 01:04:22;;;;;;;26.97;25.37;;;;;;;;;;5034516;28;20199;-74
2021/12/30 01:06:49;;;;;;;28.27;26.57;;;;;;;;;;5034514;28;20246;-75
2021/12/30 01:09:15;;;;;;;28.13;26.43;;;;;;;;;;5034390;28;20613;-75
2021/12/30 01:11:42;;;;;;;27.60;25.90;;;;;;;;;;5034284;28;20281;-75
2021/12/30 01:14:16;;;;;;;27.37;25.67;;;;;;;;;;5034020;28;20667;-74
2021/12/30 01:16:46;;;;;;;26.63;25.03;;;;;;;;;;5034027;28;20188;-75
2021/12/30 01:19:23;;;;;;;25.43;23.83;;;;;;;;;;5034323;28;20278;-75
2021/12/30 01:21:52;;;;;;;25.00;23.50;;;;;;;;;;5034328;28;20257;-75
2021/12/30 01:24:18;;;;;;;26.10;24.60;;;;;;;;;;5034174;28;20199;-75
2021/12/30 01:26:45;;;;;;;23.93;22.53;;;;;;;;;;5034080;28;20614;-75
2021/12/30 01:29:12;;;;;;;26.60;25.00;;;;;;;;;;5034079;28;20196;-75
2021/12/30 01:31:39;;;;;;;25.53;24.03;;;;;;;;;;5033603;28;20258;-75
2021/12/30 01:34:05;;;;;;;27.13;25.53;;;;;;;;;;5033684;28;20199;-75
2021/12/30 01:36:34;;;;;;;27.67;25.97;;;;;;;;;;5033641;28;20548;-74
2021/12/30 01:39:00;;;;;;;27.67;25.97;;;;;;;;;;5033822;28;20223;-75
2021/12/30 01:41:27;;;;;;;26.70;25.10;;;;;;;;;;5033540;28;20199;-75
2021/12/30 01:43:54;;;;;;;28.37;26.67;;;;;;;;;;5033739;28;20277;-75
2021/12/30 01:46:20;;;;;;;25.73;24.23;;;;;;;;;;5033770;28;20277;-75
2021/12/30 01:48:47;;;;;;;26.57;24.97;;;;;;;;;;5033691;28;20195;-75
2021/12/30 01:51:14;;;;;;;26.47;24.87;;;;;;;;;;5033231;28;20239;-75
2021/12/30 01:53:42;;;;;;;24.97;23.47;;;;;;;;;;5033632;28;20196;-74
2021/12/30 01:56:09;;;;;;;28.17;26.47;;;;;;;;;;5033153;28;20291;-74
2021/12/30 01:58:36;;;;;;;27.30;25.60;;;;;;;;;;5033499;28;20257;-75
2021/12/30 02:01:03;;;;;;;27.27;25.57;;;;;;;;;;5033160;28;20727;-75
2021/12/30 02:03:30;;;;;;;28.90;27.10;;;;;;;;;;5033361;28;20270;-75
2021/12/30 02:05:57;;;;;;;28.60;26.80;;;;;;;;;;5033229;28;20206;-75
2021/12/30 02:08:23;;;;;;;29.70;27.90;;;;;;;;;;5032985;28;20198;-75
2021/12/30 02:10:52;;;;;;;29.10;27.30;;;;;;;;;;5033215;28;20383;-75
2021/12/30 02:13:19;;;;;;;25.97;24.27;;;;;;;;;;5033212;28;20226;-74
2021/12/30 02:15:46;;;;;;;29.87;27.97;;;;;;;;;;5032863;28;20235;-75
2021/12/30 02:18:12;;;;;;;29.87;28.07;;;;;;;;;;5033100;28;20282;-75
2021/12/30 02:20:44;;;;;;;28.57;26.77;;;;;;;;;;5032739;28;20195;-74
2021/12/30 02:23:11;;;;;;;30.53;28.63;;;;;;;;;;5033942;28;20188;-75
2021/12/30 02:25:38;;;;;;;30.73;28.83;;;;;;;;;;5032982;28;20206;-75
2021/12/30 02:28:08;;;;;;;26.60;25.00;;;;;;;;;;5032907;28;20566;-75
2021/12/30 02:30:36;;;;;;;24.90;23.40;;;;;;;;;;5032812;28;20220;-75
2021/12/30 02:33:03;;;;;;;24.50;23.00;;;;;;;;;;5032898;28;20283;-75
2021/12/30 02:35:31;;;;;;;24.67;23.17;;;;;;;;;;5032848;28;20231;-75
2021/12/30 02:38:00;;;;;;;27.10;25.43;;;;;;;;;;5032489;28;20195;-75
2021/12/30 02:40:27;;;;;;;26.60;25.00;;;;;;;;;;5032797;28;20210;-75
2021/12/30 02:42:54;;;;;;;27.70;26.00;;;;;;;;;;5032694;28;20301;-75
2021/12/30 02:45:20;;;;;;;29.50;27.70;;;;;;;;;;5032355;28;20202;-75
2021/12/30 02:47:47;;;;;;;28.53;26.83;;;;;;;;;;5032359;28;20198;-75
2021/12/30 02:50:14;;;;;;;26.37;24.77;;;;;;;;;;5032483;28;20391;-75
2021/12/30 02:52:41;;;;;;;29.23;27.43;;;;;;;;;;5032076;28;20614;-75
2021/12/30 02:55:09;;;;;;;29.13;27.40;;;;;;;;;;5032515;28;20283;-75
2021/12/30 02:57:36;;;;;;;27.00;25.40;;;;;;;;;;5032547;28;20200;-75
2021/12/30 03:00:04;;;;;;;26.87;25.27;;;;;;;;;;5032143;28;20192;-75
2021/12/30 03:02:30;;;;;;;25.33;23.83;;;;;;;;;;5032468;28;20200;-76
2021/12/30 03:04:57;;;;;;;27.53;25.83;;;;;;;;;;5032118;28;20286;-75
2021/12/30 03:07:24;;;;;;;25.23;23.70;;;;;;;;;;5032035;28;20196;-75
2021/12/30 03:09:50;;;;;;;26.33;24.73;;;;;;;;;;5032089;28;20199;-75
2021/12/30 03:12:19;;;;;;;27.40;25.73;;;;;;;;;;5031909;28;20583;-75
2021/12/30 03:14:46;;;;;;;28.17;26.47;;;;;;;;;;5032339;28;20250;-75
2021/12/30 03:17:13;;;;;;;27.00;25.40;;;;;;;;;;5031497;28;20670;-76
2021/12/30 03:19:40;;;;;;;26.20;24.60;;;;;;;;;;5032207;28;20227;-75
2021/12/30 03:22:07;;;;;;;26.47;24.87;;;;;;;;;;5031950;28;20740;-75
2021/12/30 03:24:35;;;;;;;28.13;26.43;;;;;;;;;;5031861;28;20282;-75
2021/12/30 03:27:02;;;;;;;26.20;24.60;;;;;;;;;;5031930;28;20667;-75
2021/12/30 03:29:30;;;;;;;27.50;25.83;;;;;;;;;;5032195;28;20196;-75
2021/12/30 03:31:57;;;;;;;27.40;25.70;;;;;;;;;;5032029;28;20234;-76
2021/12/30 03:34:24;;;;;;;26.70;25.10;;;;;;;;;;5031844;28;20283;-76
2021/12/30 03:36:51;;;;;;;24.73;23.23;;;;;;;;;;5032072;28;20191;-75
2021/12/30 03:39:17;;;;;;;28.37;26.67;;;;;;;;;;5031767;28;20196;-76
2021/12/30 03:41:44;;;;;;;28.43;26.73;;;;;;;;;;5032017;28;20258;-75
2021/12/30 03:44:11;;;;;;;24.13;22.73;;;;;;;;;;5031787;28;20196;-76
2021/12/30 03:46:39;;;;;;;27.77;26.17;;;;;;;;;;5032088;28;20287;-76
2021/12/30 03:49:06;;;;;;;26.30;24.80;;;;;;;;;;5031968;28;20204;-76
2021/12/30 03:51:38;;;;;;;26.30;24.80;;;;;;;;;;5031555;28;20243;-75
2021/12/30 03:54:05;;;;;;;26.83;25.33;;;;;;;;;;5031970;28;20204;-75
2021/12/30 03:56:31;;;;;;;27.67;26.07;;;;;;;;;;5031914;28;20235;-75
2021/12/30 03:58:58;;;;;;;24.20;22.80;;;;;;;;;;5031960;28;20623;-75
2021/12/30 04:01:26;;;;;;;23.90;22.50;;;;;;;;;;5031617;28;20235;-76
2021/12/30 04:03:55;;;;;;;23.77;22.37;;;;;;;;;;5031913;28;20572;-76
2021/12/30 04:06:22;;;;;;;23.40;22.00;;;;;;;;;;5031523;28;20659;-76
2021/12/30 04:08:48;;;;;;;24.33;22.93;;;;;;;;;;5031548;28;20286;-75
2021/12/30 04:11:15;;;;;;;23.43;22.13;;;;;;;;;;5031653;28;20319;-75
2021/12/30 04:13:42;;;;;;;23.27;21.97;;;;;;;;;;5031505;28;20245;-75
2021/12/30 04:16:09;;;;;;;22.77;21.47;;;;;;;;;;5031529;28;20202;-75
2021/12/30 04:18:36;;;;;;;23.27;21.97;;;;;;;;;;5031365;28;20702;-75
2021/12/30 04:21:04;;;;;;;23.03;21.73;;;;;;;;;;5031409;28;20199;-76
2021/12/30 04:23:31;;;;;;;22.60;21.30;;;;;;;;;;5031667;28;20196;-76
2021/12/30 04:25:58;;;;;;;20.27;19.17;;;;;;;;;;5031663;28;20254;-76
2021/12/30 04:28:25;;;;;;;20.03;18.93;;;;;;;;;;5032084;28;20198;-75
2021/12/30 04:30:51;;;;;;;18.70;17.70;;;;;;;;;;5035127;28;20681;-75
2021/12/30 04:33:19;;;;;;;21.43;20.23;;;;;;;;;;5035157;28;20231;-75
2021/12/30 04:35:46;;;;;;;20.17;19.07;;;;;;;;;;5035089;28;20204;-75
2021/12/30 04:38:14;;;;;;;22.13;20.93;;;;;;;;;;5034762;28;20234;-76
2021/12/30 04:40:41;;;;;;;21.27;20.07;;;;;;;;;;5034973;28;20196;-76
2021/12/30 04:43:09;;;;;;;21.57;20.37;;;;;;;;;;5034964;28;20231;-75
2021/12/30 04:45:36;;;;;;;20.43;19.33;;;;;;;;;;5034941;28;20214;-75
2021/12/30 04:48:03;;;;;;;21.83;20.63;;;;;;;;;;5034559;28;20250;-76
2021/12/30 04:50:30;;;;;;;21.50;20.30;;;;;;;;;;5034336;28;20196;-76
2021/12/30 04:52:56;;;;;;;21.57;20.37;;;;;;;;;;5035002;28;20251;-76
2021/12/30 04:55:24;;;;;;;21.00;19.90;;;;;;;;;;5034707;28;20191;-75
2021/12/30 04:57:51;;;;;;;22.00;20.80;;;;;;;;;;5034395;28;20218;-75
2021/12/30 05:00:18;;;;;;;21.87;20.67;;;;;;;;;;5034597;28;20223;-75
2021/12/30 05:03:07;;;;;;;21.07;19.97;;;;;;;;;;5034681;28;20257;-76
2021/12/30 05:05:36;;;;;;;20.60;19.50;;;;;;;;;;5034318;28;20188;-75
2021/12/30 05:08:03;;;;;;;20.77;19.67;;;;;;;;;;5034504;28;20231;-75
2021/12/30 05:10:31;;;;;;;21.77;20.57;;;;;;;;;;5034105;28;20192;-75
2021/12/30 05:12:59;;;;;;;20.80;19.70;;;;;;;;;;5033978;28;20262;-75
2021/12/30 05:15:26;;;;;;;21.00;19.90;;;;;;;;;;5034012;28;20199;-75
2021/12/30 05:17:52;;;;;;;20.10;19.00;;;;;;;;;;5034333;28;20195;-75
2021/12/30 05:20:19;;;;;;;20.60;19.50;;;;;;;;;;5034304;28;20278;-75
2021/12/30 05:22:46;;;;;;;21.47;20.37;;;;;;;;;;5034238;28;20257;-75
2021/12/30 05:25:13;;;;;;;20.00;19.00;;;;;;;;;;5034193;28;20258;-76
2021/12/30 05:27:42;;;;;;;20.90;19.80;;;;;;;;;;5034100;28;20199;-75
2021/12/30 05:30:10;;;;;;;21.23;20.13;;;;;;;;;;5033739;28;20674;-75
2021/12/30 05:32:37;;;;;;;21.33;20.13;;;;;;;;;;5033608;28;20326;-75
2021/12/30 05:35:04;;;;;;;19.40;18.40;;;;;;;;;;5033697;28;20287;-76
2021/12/30 05:37:31;;;;;;;19.87;18.77;;;;;;;;;;5034009;28;20245;-76
2021/12/30 05:39:58;;;;;;;21.30;20.10;;;;;;;;;;5033096;28;20725;-75
2021/12/30 05:42:24;;;;;;;22.70;21.40;;;;;;;;;;5033598;28;20191;-76
2021/12/30 05:44:53;;;;;;;20.67;19.50;;;;;;;;;;5033742;28;20196;-76
2021/12/30 05:47:20;;;;;;;19.63;18.60;;;;;;;;;;5033450;28;20231;-75
2021/12/30 05:49:46;;;;;;;19.80;18.80;;;;;;;;;;5033442;28;20254;-76
2021/12/30 05:52:13;;;;;;;20.43;19.43;;;;;;;;;;5033114;28;20758;-75
2021/12/30 05:54:40;;;;;;;20.50;19.40;;;;;;;;;;5033645;28;20654;-75
2021/12/30 05:57:07;;;;;;;21.60;20.40;;;;;;;;;;5033205;28;20286;-76
2021/12/30 05:59:34;;;;;;;21.93;20.73;;;;;;;;;;5033567;28;20584;-75
2021/12/30 06:02:02;;;;;;;20.33;19.23;;;;;;;;;;5033468;28;20231;-76
2021/12/30 06:04:28;;;;;;;20.10;18.90;;;;;;;;;;5033866;28;20235;-75
2021/12/30 06:06:55;;;;;;;22.37;21.07;;;;;;;;;;5033437;28;20250;-75
2021/12/30 06:09:25;;;;;;;23.33;21.93;;;;;;;;;;5033349;28;20724;-75
2021/12/30 06:11:51;;;;;;;21.10;19.83;;;;;;;;;;5032896;28;20228;-75
2021/12/30 06:14:18;;;;;;;20.10;18.90;;;;;;;;;;5033181;28;20195;-75
2021/12/30 06:16:45;;;;;;;20.60;19.40;;;;;;;;;;5033229;28;20338;-75
2021/12/30 06:19:13;;;;;;;19.37;18.27;;;;;;;;;;5032859;28;20235;-75
2021/12/30 06:21:40;;;;;;;22.33;21.03;;;;;;;;;;5032801;28;20271;-75
2021/12/30 06:24:07;;;;;;;18.90;17.90;;;;;;;;;;5033094;28;20204;-76
2021/12/30 06:26:33;;;;;;;20.73;19.63;;;;;;;;;;5032987;28;20222;-75
2021/12/30 06:29:00;;;;;;;20.73;19.63;;;;;;;;;;5032678;28;20739;-75
2021/12/30 06:31:27;;;;;;;19.17;18.17;;;;;;;;;;5032534;28;20658;-76
2021/12/30 06:33:53;;;;;;;18.77;17.77;;;;;;;;;;5032847;28;20227;-76
2021/12/30 06:36:22;;;;;;;19.07;18.07;;;;;;;;;;5032557;28;20282;-76
2021/12/30 06:38:48;;;;;;;20.03;18.93;;;;;;;;;;5032743;28;20223;-77
2021/12/30 06:41:15;;;;;;;19.27;18.17;;;;;;;;;;5032495;28;20278;-76
2021/12/30 06:43:42;;;;;;;20.47;19.37;;;;;;;;;;5032390;28;20291;-76
2021/12/30 06:46:10;;;;;;;20.90;19.70;;;;;;;;;;5032951;28;20250;-77
2021/12/30 06:48:37;;;;;;;20.83;19.63;;;;;;;;;;5032663;28;20226;-77
2021/12/30 06:51:04;;;;;;;21.07;19.87;;;;;;;;;;5031327;28;20231;-76
2021/12/30 06:53:34;;;;;;;21.50;20.20;;;;;;;;;;5032583;28;20227;-77
2021/12/30 06:56:00;;;;;;;21.50;20.20;;;;;;;;;;5032504;28;20207;-76
2021/12/30 06:58:27;;;;;;;21.70;20.40;;;;;;;;;;5032543;28;20617;-77
2021/12/30 07:00:54;;;;;;;19.73;18.63;;;;;;;;;;5032170;28;20227;-77
2021/12/30 07:03:20;;;;;;;21.20;20.00;;;;;;;;;;5032129;28;20242;-77
2021/12/30 07:05:47;;;;;;;19.60;18.50;;;;;;;;;;5032380;28;20334;-77
2021/12/30 07:08:14;;;;;;;20.13;19.03;;;;;;;;;;5032319;28;20199;-77
2021/12/30 07:10:42;;;;;;;19.37;18.27;;;;;;;;;;5032402;28;20279;-76
2021/12/30 07:13:09;;;;;;;19.40;18.30;;;;;;;;;;5032326;28;20259;-76
2021/12/30 07:15:36;;;;;;;19.10;18.00;;;;;;;;;;5032299;28;20227;-76
2021/12/30 07:18:03;;;;;;;18.37;17.37;;;;;;;;;;5032027;28;20200;-77
2021/12/30 07:20:29;;;;;;;18.43;17.37;;;;;;;;;;5032011;28;20253;-77
2021/12/30 07:22:56;;;;;;;19.43;18.33;;;;;;;;;;5032236;28;20678;-76
2021/12/30 07:25:23;;;;;;;21.53;20.23;;;;;;;;;;5032131;28;20557;-76
2021/12/30 07:27:52;;;;;;;21.70;20.40;;;;;;;;;;5032250;28;20269;-76
2021/12/30 07:30:19;;;;;;;20.70;19.50;;;;;;;;;;5031877;28;20197;-76
2021/12/30 07:32:46;;;;;;;21.63;20.33;;;;;;;;;;5032047;28;20294;-76
2021/12/30 07:35:13;;;;;;;22.80;21.43;;;;;;;;;;5031810;28;20666;-76
2021/12/30 07:37:39;;;;;;;23.60;22.20;;;;;;;;;;5032308;28;20203;-76
2021/12/30 07:40:07;;;;;;;21.63;20.33;;;;;;;;;;5032033;28;20274;-76
2021/12/30 07:42:33;;;;;;;25.10;23.50;;;;;;;;;;5031796;28;20677;-76
2021/12/30 07:45:01;;;;;;;23.43;21.93;;;;;;;;;;5032266;28;20191;-76
2021/12/30 07:47:28;;;;;;;25.77;24.07;;;;;;;;;;5032045;28;20228;-76
2021/12/30 07:49:55;;;;;;;28.97;26.97;;;;;;;;;;5031653;28;20250;-76
2021/12/30 07:52:22;;;;;;;31.30;29.20;;;;;;;;;;5031691;28;20666;-76
2021/12/30 07:54:48;;;;;;;30.03;27.93;;;;;;;;;;5031943;28;20578;-76
2021/12/30 07:57:18;;;;;;;37.03;33.47;;;;;;;;;;5031583;28;20689;-76
2021/12/30 07:59:44;;;;;;;28.23;26.23;;;;;;;;;;5031690;28;20202;-76
2021/12/30 08:02:13;;;;;;;27.00;25.03;;;;;;;;;;5032288;28;20564;-76
2021/12/30 08:04:39;;;;;;;25.90;24.00;;;;;;;;;;5035360;28;20244;-76
2021/12/30 08:07:06;;;;;;;27.37;25.43;;;;;;;;;;5035531;28;20660;-76
2021/12/30 08:09:33;;;;;;;27.37;25.47;;;;;;;;;;5035286;28;20192;-76
2021/12/30 08:12:00;;;;;;;28.00;26.00;;;;;;;;;;5035184;28;20195;-76
2021/12/30 08:14:27;;;;;;;29.93;27.63;;;;;;;;;;5035151;28;20192;-76
2021/12/30 08:16:53;;;;;;;28.57;26.57;;;;;;;;;;5035519;28;20279;-76
2021/12/30 08:19:22;;;;;;;27.97;25.97;;;;;;;;;;5035371;28;20200;-76
2021/12/30 08:21:48;;;;;;;30.40;27.90;;;;;;;;;;5035399;28;20253;-76
2021/12/30 08:24:15;;;;;;;28.60;26.60;;;;;;;;;;5035335;28;20199;-76
2021/12/30 08:26:42;;;;;;;30.10;28.00;;;;;;;;;;5034930;28;20246;-76
2021/12/30 08:29:08;;;;;;;26.80;24.90;;;;;;;;;;5035257;28;20279;-76
2021/12/30 08:31:35;;;;;;;26.93;25.03;;;;;;;;;;5035184;28;20291;-76
2021/12/30 08:34:02;;;;;;;28.43;26.43;;;;;;;;;;5035003;28;20267;-76
2021/12/30 08:36:30;;;;;;;29.20;27.20;;;;;;;;;;5035068;28;20192;-76
2021/12/30 08:38:57;;;;;;;29.40;27.43;;;;;;;;;;5035304;28;20246;-75
2021/12/30 08:41:24;;;;;;;28.43;26.53;;;;;;;;;;5034732;28;20200;-76
2021/12/30 08:43:51;;;;;;;25.90;24.30;;;;;;;;;;5034927;28;20196;-76
2021/12/30 08:46:17;;;;;;;28.13;26.33;;;;;;;;;;5034609;28;20235;-76
2021/12/30 08:48:44;;;;;;;24.90;23.40;;;;;;;;;;5034957;28;20223;-76
2021/12/30 08:51:11;;;;;;;23.43;22.13;;;;;;;;;;5034444;28;20797;-76
2021/12/30 08:53:40;;;;;;;22.20;21.00;;;;;;;;;;5034678;28;20242;-76
2021/12/30 08:56:08;;;;;;;23.23;21.93;;;;;;;;;;5034943;28;20207;-75
2021/12/30 08:58:35;;;;;;;21.13;19.97;;;;;;;;;;5034382;28;20196;-76
2021/12/30 09:01:01;;;;;;;19.20;18.20;;;;;;;;;;5034856;28;20278;-76
2021/12/30 09:03:28;;;;;;;20.40;19.30;;;;;;;;;;5034625;28;20326;-75
2021/12/30 09:05:55;;;;;;;20.80;19.60;;;;;;;;;;5035029;28;20212;-75
2021/12/30 09:08:22;;;;;;;20.90;19.70;;;;;;;;;;5034182;28;20245;-76
2021/12/30 09:10:50;;;;;;;20.90;19.70;;;;;;;;;;5034159;28;20231;-76
2021/12/30 09:13:18;;;;;;;22.17;20.87;;;;;;;;;;5035118;28;20266;-76
2021/12/30 09:15:46;;;;;;;22.30;21.00;;;;;;;;;;5033852;28;20199;-76
2021/12/30 09:18:12;;;;;;;22.53;21.23;;;;;;;;;;5034060;28;20196;-76
2021/12/30 09:20:40;;;;;;;21.90;20.60;;;;;;;;;;5033995;28;20669;-76
2021/12/30 09:23:07;;;;;;;21.97;20.67;;;;;;;;;;5033955;28;20196;-75
2021/12/30 09:25:35;;;;;;;22.83;21.43;;;;;;;;;;5033888;28;20200;-76
2021/12/30 09:28:04;;;;;;;20.83;19.63;;;;;;;;;;5034173;28;20248;-75
2021/12/30 09:30:30;;;;;;;21.30;20.10;;;;;;;;;;5034024;28;20250;-75
2021/12/30 09:32:59;;;;;;;24.73;23.23;;;;;;;;;;5033674;28;20318;-75
2021/12/30 09:35:27;;;;;;;24.80;23.30;;;;;;;;;;5034034;28;20279;-75
2021/12/30 09:37:53;;;;;;;21.17;19.97;;;;;;;;;;5033575;28;20677;-75
2021/12/30 09:40:20;;;;;;;19.87;18.77;;;;;;;;;;5033595;28;20192;-75
2021/12/30 09:42:50;;;;;;;21.30;20.07;;;;;;;;;;5034074;28;20281;-74
2021/12/30 09:45:18;;;;;;;21.47;20.23;;;;;;;;;;5033817;28;20555;-75
2021/12/30 09:47:46;;;;;;;22.30;21.00;;;;;;;;;;5033405;28;20231;-75
2021/12/30 09:50:13;;;;;;;21.30;20.10;;;;;;;;;;5033762;28;20278;-74
2021/12/30 09:52:39;;;;;;;22.53;21.23;;;;;;;;;;5033313;28;20322;-75
2021/12/30 09:55:07;;;;;;;21.60;20.40;;;;;;;;;;5033607;28;20200;-75
2021/12/30 09:57:34;;;;;;;19.50;18.50;;;;;;;;;;5033300;28;20724;-75
2021/12/30 10:00:01;;;;;;;20.50;19.40;;;;;;;;;;5033480;28;20700;-75
2021/12/30 10:02:29;;;;;;;21.80;20.50;;;;;;;;;;5033500;28;20274;-75
2021/12/30 10:05:02;;;;;;;20.33;19.23;;;;;;;;;;5033454;28;20309;-75
2021/12/30 10:07:29;;;;;;;20.90;19.70;;;;;;;;;;5033378;28;20188;-75
2021/12/30 10:10:01;;;;;;;19.37;18.37;;;;;;;;;;5033385;28;20223;-75
2021/12/30 10:12:34;;;;;;;19.80;18.70;;;;;;;;;;5032945;28;20227;-75
2021/12/30 10:15:01;;;;;;;18.43;17.43;;;;;;;;;;5033148;28;20227;-75
2021/12/30 10:17:30;;;;;;;19.03;18.03;;;;;;;;;;5033141;28;20315;-74
2021/12/30 10:20:14;;;;;;;18.70;17.70;;;;;;;;;;5033075;28;20196;-74
2021/12/30 10:22:41;;;;;;;19.50;18.50;;;;;;;;;;5033355;28;20192;-74
2021/12/30 10:25:23;;;;;;;18.83;17.83;;;;;;;;;;5032763;28;20196;-74
2021/12/30 10:27:49;;;;;;;19.60;18.60;;;;;;;;;;5032626;28;20290;-74
2021/12/30 10:30:29;;;;;;;20.03;18.93;;;;;;;;;;5032978;28;20192;-74
2021/12/30 10:33:00;;;;;;;19.13;18.13;;;;;;;;;;5032583;28;20207;-74
2021/12/30 10:35:28;;;;;;;19.07;18.07;;;;;;;;;;5032920;28;20242;-74
2021/12/30 10:38:03;;;;;;;18.63;17.63;;;;;;;;;;5032847;28;20199;-74
2021/12/30 10:40:31;;;;;;;18.70;17.70;;;;;;;;;;5032581;28;20194;-74
2021/12/30 10:43:12;;;;;;;20.90;19.70;;;;;;;;;;5032489;28;20672;-74
2021/12/30 10:45:40;;;;;;;21.27;20.07;;;;;;;;;;5032749;28;20204;-74
2021/12/30 10:48:11;;;;;;;21.07;19.87;;;;;;;;;;5032360;28;20682;-74
2021/12/30 10:50:38;;;;;;;22.87;21.50;;;;;;;;;;5032197;28;20196;-74
2021/12/30 10:53:04;;;;;;;20.60;19.50;;;;;;;;;;5032542;28;20208;-74
2021/12/30 10:55:33;;;;;;;20.80;19.60;;;;;;;;;;5032516;28;20203;-74
2021/12/30 10:58:21;;;;;;;20.97;19.77;;;;;;;;;;5032769;28;20192;-73
2021/12/30 11:00:48;;;;;;;21.87;20.57;;;;;;;;;;5032108;28;20211;-73
2021/12/30 11:03:24;;;;;;;19.80;18.70;;;;;;;;;;5032413;28;20306;-73
2021/12/30 11:06:09;;;;;;;21.60;20.30;;;;;;;;;;5032984;28;20238;-73
2021/12/30 11:08:36;;;;;;;20.40;19.20;;;;;;;;;;5032385;28;20274;-73
2021/12/30 11:11:22;;;;;;;20.83;19.63;;;;;;;;;;5032142;28;20200;-74
2021/12/30 11:13:56;;;;;;;21.00;19.70;;;;;;;;;;5032598;28;20638;-74
2021/12/30 11:16:23;;;;;;;19.90;18.80;;;;;;;;;;5032040;28;20222;-74
2021/12/30 11:18:51;;;;;;;19.90;18.80;;;;;;;;;;5032269;28;20202;-74
2021/12/30 11:21:33;;;;;;;19.47;18.47;;;;;;;;;;5031957;28;20728;-74
2021/12/30 11:24:00;;;;;;;20.20;19.10;;;;;;;;;;5031849;28;20219;-74
2021/12/30 11:26:27;;;;;;;18.60;17.60;;;;;;;;;;5031893;28;20202;-74
2021/12/30 11:28:53;;;;;;;19.00;18.00;;;;;;;;;;5031915;28;20242;-74
2021/12/30 11:31:20;;;;;;;19.80;18.70;;;;;;;;;;5032242;28;20286;-74
2021/12/30 11:33:47;;;;;;;20.47;19.37;;;;;;;;;;5031741;28;20267;-74
2021/12/30 11:36:17;;;;;;;18.63;17.63;;;;;;;;;;5031856;28;20253;-74
2021/12/30 11:38:43;;;;;;;18.73;17.73;;;;;;;;;;5035094;28;20195;-74
2021/12/30 11:41:16;;;;;;;19.93;18.83;;;;;;;;;;5036385;28;20238;-74
2021/12/30 11:43:44;;;;;;;21.33;20.20;;;;;;;;;;5035801;28;20227;-74
2021/12/30 11:46:25;;;;;;;20.00;18.90;;;;;;;;;;5036091;28;20199;-74
2021/12/30 11:48:54;;;;;;;20.33;19.23;;;;;;;;;;5035584;28;20206;-74
2021/12/30 11:51:23;;;;;;;18.10;17.20;;;;;;;;;;5035445;28;20733;-74
2021/12/30 11:53:50;;;;;;;18.40;17.40;;;;;;;;;;5035496;28;20228;-74
2021/12/30 11:56:18;;;;;;;20.10;19.00;;;;;;;;;;5035584;28;20257;-74
2021/12/30 11:58:49;;;;;;;19.70;18.60;;;;;;;;;;5035861;28;20223;-74
2021/12/30 12:01:34;;;;;;;18.80;17.80;;;;;;;;;;5035497;28;20560;-74
2021/12/30 12:04:02;;;;;;;19.27;18.27;;;;;;;;;;5035692;28;20231;-74
2021/12/30 12:06:32;;;;;;;18.00;17.10;;;;;;;;;;5035436;28;20203;-75
2021/12/30 12:09:00;;;;;;;19.10;18.10;;;;;;;;;;5035650;28;20551;-74
2021/12/30 12:11:28;;;;;;;20.40;19.30;;;;;;;;;;5035603;28;20234;-74
2021/12/30 12:13:56;;;;;;;19.80;18.70;;;;;;;;;;5035141;28;20273;-74
2021/12/30 12:16:38;;;;;;;20.00;18.90;;;;;;;;;;5035503;28;20609;-74
2021/12/30 12:19:05;;;;;;;21.50;20.30;;;;;;;;;;5035075;28;20232;-74
2021/12/30 12:21:40;;;;;;;21.97;20.77;;;;;;;;;;5035069;28;20198;-74
2021/12/30 12:24:28;;;;;;;22.67;21.43;;;;;;;;;;5035111;28;20570;-74
2021/12/30 12:26:55;;;;;;;20.20;19.03;;;;;;;;;;5035007;28;20279;-73
2021/12/30 12:29:23;;;;;;;20.30;19.10;;;;;;;;;;5035256;28;20227;-74
2021/12/30 12:31:53;;;;;;;19.30;18.20;;;;;;;;;;5035130;28;20219;-74
2021/12/30 12:34:33;;;;;;;18.13;17.23;;;;;;;;;;5035138;28;20432;-74
2021/12/30 12:37:01;;;;;;;19.60;18.60;;;;;;;;;;5034895;28;20570;-74
2021/12/30 12:39:34;;;;;;;19.50;18.50;;;;;;;;;;5035076;28;20257;-74
2021/12/30 12:42:01;;;;;;;19.40;18.40;;;;;;;;;;5035045;28;20221;-74
2021/12/30 12:44:29;;;;;;;19.80;18.70;;;;;;;;;;5034683;28;20202;-74
2021/12/30 12:46:56;;;;;;;20.70;19.50;;;;;;;;;;5035188;28;20257;-74
2021/12/30 12:49:37;;;;;;;21.07;19.87;;;;;;;;;;5033708;28;20282;-74
2021/12/30 12:52:06;;;;;;;23.13;21.63;;;;;;;;;;5034360;28;20231;-74
2021/12/30 12:54:34;;;;;;;21.80;20.50;;;;;;;;;;5034703;28;20318;-74
2021/12/30 12:57:05;;;;;;;19.93;18.83;;;;;;;;;;5034694;28;20330;-74
2021/12/30 12:59:34;;;;;;;20.80;19.60;;;;;;;;;;5034755;28;20250;-74
2021/12/30 13:02:01;;;;;;;21.37;20.07;;;;;;;;;;5034297;28;20235;-74
2021/12/30 13:04:27;;;;;;;20.73;19.53;;;;;;;;;;5034336;28;20751;-74
2021/12/30 13:06:54;;;;;;;20.37;19.17;;;;;;;;;;5034649;28;20253;-74
2021/12/30 13:09:23;;;;;;;22.00;20.50;;;;;;;;;;5034187;28;20737;-73
2021/12/30 13:11:52;;;;;;;20.70;19.50;;;;;;;;;;5034180;28;20270;-74
2021/12/30 13:14:21;;;;;;;19.07;18.00;;;;;;;;;;5034037;28;20734;-74
2021/12/30 13:16:48;;;;;;;19.80;18.70;;;;;;;;;;5034647;28;20644;-74
2021/12/30 13:19:17;;;;;;;19.60;18.50;;;;;;;;;;5034599;28;20195;-74
2021/12/30 13:21:46;;;;;;;20.23;19.07;;;;;;;;;;5034065;28;20723;-74
2021/12/30 13:24:31;;;;;;;20.57;19.37;;;;;;;;;;5033969;28;20287;-74
2021/12/30 13:27:01;;;;;;;19.13;18.13;;;;;;;;;;5034236;28;20283;-74
2021/12/30 13:29:28;;;;;;;20.43;19.23;;;;;;;;;;5034128;28;20239;-74
2021/12/30 13:31:58;;;;;;;21.00;19.80;;;;;;;;;;5033806;28;20235;-74
2021/12/30 13:34:25;;;;;;;21.43;19.50;;;;;;;;;;5033938;28;20234;-74
2021/12/30 13:36:52;;;;;;;20.20;19.10;;;;;;;;;;5034048;28;20274;-74
2021/12/30 13:39:19;;;;;;;19.97;18.87;;;;;;;;;;5033976;28;20203;-74
2021/12/30 13:41:52;;;;;;;20.50;19.40;;;;;;;;;;5033893;28;20203;-74
2021/12/30 13:44:22;;;;;;;19.77;18.67;;;;;;;;;;5034425;28;20246;-74
2021/12/30 13:46:48;;;;;;;19.90;18.80;;;;;;;;;;5033488;28;20199;-74
2021/12/30 13:49:16;;;;;;;20.20;19.10;;;;;;;;;;5033789;28;20725;-74
2021/12/30 13:51:42;;;;;;;20.57;19.37;;;;;;;;;;5033534;28;20294;-74
2021/12/30 13:54:10;;;;;;;20.27;19.17;;;;;;;;;;5033633;28;20263;-74
2021/12/30 13:56:36;;;;;;;19.83;18.73;;;;;;;;;;5033395;28;20192;-74
2021/12/30 13:59:04;;;;;;;20.20;19.10;;;;;;;;;;5034351;28;20232;-74
2021/12/30 14:01:33;;;;;;;20.50;19.40;;;;;;;;;;5032908;28;20242;-74
2021/12/30 14:04:03;;;;;;;20.70;19.50;;;;;;;;;;5033134;28;20660;-74
2021/12/30 14:06:31;;;;;;;23.23;21.83;;;;;;;;;;5033529;28;20223;-74
2021/12/30 14:08:58;;;;;;;21.70;20.43;;;;;;;;;;5033173;28;20253;-74
2021/12/30 14:11:28;;;;;;;21.00;19.80;;;;;;;;;;5033654;28;20238;-74
2021/12/30 14:13:56;;;;;;;20.87;19.67;;;;;;;;;;5033298;28;20242;-74
2021/12/30 14:16:24;;;;;;;19.60;18.50;;;;;;;;;;5032887;28;20616;-74
2021/12/30 14:18:54;;;;;;;19.60;18.50;;;;;;;;;;5033170;28;20433;-74
2021/12/30 14:21:23;;;;;;;18.70;17.73;;;;;;;;;;5033244;28;20231;-74